Felipe Serrano

Olheiro - Valencia
16 Set 2027
Quinta-feira
Processo

Personalidade

Adaptabilidade (7) Ambição (1) Controvérsia (18) Lealdade (13) Pressão (13) Profissionalismo (12) Espírito Esportivo (10) Temperamento (9)

Perfil

Estilo de Treinamento Democrático
Licença Continental B
Determinação 13
Gestão de Pessoas 14
Motivação 7
Disciplina 14
Satisfação no Trabalho
100%
Fadiga
0%
Função Olheiro
Salário 98.0K p/s
Contrato 14.03.2030

Desempenho

Comportamento Bom
Eficácia do Treinamento
40%
Desenvolvimento do Jogador
45%
Prevenção de Lesões
35%
Implementação Tática
30%

Eventos Recentes

Participou de uma reunião de recrutamento 7d atrás
Participou de uma reunião de recrutamento 7d atrás
Observou uma partida 7d atrás
Participou de uma reunião de recrutamento 14d atrás
Participou de uma reunião de recrutamento 14d atrás
Participou de uma reunião de recrutamento 21d atrás
Participou de uma reunião de recrutamento 21d atrás
Participou de uma reunião de recrutamento 28d atrás

Monitorando agora

114
Jogador Clube Status Habilidade Confiança Observado Última observação Último voto
Toni Tamarit Alverca Ativo 124 / 126 40% 1 02.06.2027 -
Fahad Hassan Al Shabab Ativo 125 / 122 40% 4 31.05.2027 -
Ez Abde Girona Ativo 160 / 150 40% 2 30.05.2027 -
David Larrubia Málaga Ativo 121 / 126 40% 3 29.05.2027 -
Ozziel Herrera Tigres Ativo 129 / 129 40% 1 29.05.2027 -
Guillaume Restes Toulouse FC Ativo 129 / 138 40% 4 28.05.2027 -
Yehor Yarmoliuk Brentford Ativo 155 / 147 40% 2 26.05.2027 -
Adrien Truffert Bournemouth Ativo 141 / 146 40% 1 26.05.2027 -
Tomáš Frühwald Bohemians 1905 Ativo 115 / 122 40% 1 26.05.2027 -
Ander Astralaga Real Sociedad Ativo 134 / 128 40% 1 26.05.2027 -
Pablo Barrios Atlético Madrid Ativo 169 / 159 40% 2 24.05.2027 -
Sven Botman Newcastle United Ativo 168 / 156 40% 2 24.05.2027 -
José Ángel Carmona Sevilla Ativo 145 / 152 40% 2 23.05.2027 -
Matthijs de Ligt Manchester United Ativo 158 / 158 40% 1 23.05.2027 -
Kostantis Tzolakis Hull City Ativo 141 / 148 40% 2 22.05.2027 -
Lorenzo Palmisani Frosinone Ativo 130 / 129 40% 3 22.05.2027 -
Chris Brady Aston Villa Ativo 126 / 133 40% 2 21.05.2027 -
Dango Ouattara Brentford Ativo 145 / 148 40% 2 21.05.2027 -
Daniel Kyerewaa Reading Ativo 106 / 118 40% 1 21.05.2027 -
Radek Vítek Middlesbrough Ativo 135 / 145 40% 1 20.05.2027 -
Kang-In Lee Atlético Madrid Ativo 154 / 160 40% 6 18.05.2027 -
Aitor Fraga Real Sociedad Ativo 127 / 128 40% 3 17.05.2027 -
Emi Rodriguez Leon Ativo 110 / 124 40% 6 16.05.2027 -
Tyrhys Dolan Espanyol Ativo 150 / 135 40% 1 16.05.2027 -
João Pedro Chelsea Ativo 148 / 153 40% 6 14.05.2027 -
Alejandro Iturbe Elche Ativo 131 / 131 40% 2 14.05.2027 -
James Trafford Leeds United Ativo 148 / 140 40% 2 12.05.2027 -
Jakub Surovčík Sparta Prague Ativo 116 / 124 40% 1 11.05.2027 -
Germán Valera Elche Ativo 138 / 135 40% 1 09.05.2027 -
Tom Fellows Southampton Ativo 125 / 131 40% 2 07.05.2027 -
Matheus Cunha Manchester United Ativo 158 / 155 40% 1 07.05.2027 -
Antonio Gomis Vizela Ativo 118 / 127 40% 3 06.05.2027 -
Deniz Ertaş Konyaspor Ativo 116 / 133 40% 1 06.05.2027 -
Hector Ramirez Newcastle United Ativo 151 / 156 40% 2 05.05.2027 -
Derensili Sanches Fernandes Huddersfield Town Ativo 136 / 129 40% 4 05.05.2027 -
Obed Nkambadio Standard Liege Ativo 135 / 130 40% 2 04.05.2027 -
Pierre Kalulu Juventus Ativo 160 / 149 40% 1 04.05.2027 -
Mikel Jauregizar Athletic Bilbao Ativo 158 / 163 40% 2 03.05.2027 -
Gaspar Gijón Ativo 136 / 134 40% 2 03.05.2027 -
Levi Colwill Chelsea Ativo 165 / 164 40% 2 30.04.2027 -
Florentino Luís Ipswich Town Ativo 142 / 136 40% 1 30.04.2027 -
Senne Lammens Manchester United Ativo 148 / 155 40% 5 29.04.2027 -
Mathieu Patouillet Stade Brestois Ativo 120 / 125 40% 2 26.04.2027 -
Pablo Torre Mallorca Ativo 135 / 145 40% 1 26.04.2027 -
Kevin Vazquez Cruz Azul Ativo 130 / 138 40% 8 24.04.2027 -
Matías Gómez Granada Ativo 105 / 123 40% 2 24.04.2027 -
Callum Hudson-Odoi Nottingham Forest Ativo 141 / 154 40% 1 21.04.2027 -
Daniil Khudyakov Sturm Graz Ativo 131 / 128 40% 2 20.04.2027 -
Edoardo Motta Lazio Ativo 120 / 131 40% 5 18.04.2027 -
Kai Havertz Arsenal Ativo 167 / 165 40% 2 16.04.2027 -
Ramiro Sordo Santos Laguna Ativo 119 / 123 40% 2 13.04.2027 -
Fedor Lapoukhov CSKA Sofia Ativo 137 / 125 40% 1 13.04.2027 -
Hugo Álvarez Celta Ativo 156 / 149 40% 1 13.04.2027 -
Jarrad Branthwaite Everton Ativo 151 / 154 40% 1 12.04.2027 -
William Saliba Arsenal Ativo 177 / 171 40% 1 12.04.2027 -
Erick Sánchez OGC Nice Ativo 142 / 143 40% 2 10.04.2027 -
Diego Lainez Tigres Ativo 138 / 130 40% 2 10.04.2027 -
Ferran Torres Paris Saint-Germain Ativo 166 / 167 40% 3 09.04.2027 Observar
Jake O'Brien Everton Ativo 140 / 143 40% 1 09.04.2027 -
Andrés Martín Racing Santander Ativo 130 / 129 40% 5 06.04.2027 -
Gabriel Martinelli Brighton Ativo 167 / 166 40% 2 03.04.2027 -
Oihan Sancet Athletic Bilbao Ativo 151 / 160 40% 5 02.04.2027 -
Nico Williams Athletic Bilbao Ativo 178 / 167 40% 2 02.04.2027 -
David Ozoh Derby County Ativo 122 / 130 40% 2 31.03.2027 -
Pedri Barcelona Ativo 188 / 174 40% 3 31.03.2027 -
Ibrahim Maza Bayer Leverkusen Ativo 145 / 151 40% 1 31.03.2027 -
Giacomo Raspadori Atalanta Ativo 158 / 149 40% 1 28.03.2027 -
Jorrel Hato Chelsea Ativo 148 / 152 40% 1 25.03.2027 -
Tiago Freitas Benfica Ativo 113 / 116 40% 1 25.03.2027 -
Iker Benito Queretaro Ativo 118 / 126 40% 1 20.03.2027 -
Robin Roefs Sunderland Ativo 150 / 150 40% 2 19.03.2027 -
Oleksandr Saputin Poltava Ativo 102 / 127 40% 2 17.03.2027 -
Mohammed Kudus Tottenham Ativo 166 / 154 40% 3 16.03.2027 -
Kevin Fulham Ativo 150 / 148 40% 1 15.03.2027 -
Gavi Barcelona Ativo 154 / 159 40% 3 12.03.2027 -
Erick Reyes Toluca Ativo 147 / 144 40% 1 11.03.2027 -
Finn Azaz Southampton Ativo 125 / 125 40% 1 10.03.2027 -
Pascal Loretz Luzern Ativo 138 / 126 40% 1 05.03.2027 -
Ernie Weaver AFC Wimbledon Ativo 111 / 117 40% 2 03.03.2027 -
James Dornelly Peterborough United Ativo 111 / 104 40% 1 03.03.2027 -
Jeremie Frimpong Liverpool Ativo 166 / 154 40% 1 27.02.2027 -
Eduardo Dos Santos Veracruz Ativo 117 / 115 40% 1 23.02.2027 -
Khvicha Kvaratskhelia Paris Saint-Germain Ativo 162 / 163 40% 1 17.02.2027 -
Kyrylo Fesiun Shakhtar Ativo 108 / 123 40% 1 16.02.2027 -
Adam Wharton Crystal Palace Ativo 156 / 151 40% 1 12.02.2027 -
Tshepang Moremi Orlando Pirates Ativo 126 / 120 40% 2 11.02.2027 -
Nathan Collins Brentford Ativo 155 / 145 40% 1 08.02.2027 -
Ousmane Diomande Nottingham Forest Ativo 144 / 153 40% 1 08.02.2027 -
Fran García Betis Ativo 154 / 153 40% 1 07.02.2027 -
Paulinho Palmeiras Ativo 148 / 139 40% 1 01.02.2027 -
Jeremy Márquez Cruz Azul Ativo 122 / 131 40% 1 17.12.2026 -
Iliman N'Diaye Everton Ativo 163 / 152 40% 1 11.12.2026 -
Johnny Cardoso Atlético Madrid Ativo 152 / 150 40% 1 08.12.2026 -
Nico O'Reilly Manchester City Ativo 159 / 154 40% 3 06.12.2026 -
Lucas Agazzi Defensor Sporting Ativo 113 / 122 40% 4 29.11.2026 -
El Hadji Malick Diouf Brentford Ativo 142 / 148 40% 2 21.11.2026 -
Noah Sadiki Sunderland Ativo 136 / 145 40% 3 20.11.2026 -
Nahuel Herrera Penarol Ativo 110 / 129 40% 1 06.11.2026 -
Santiago Fernández Talleres Ativo 130 / 130 40% 1 04.11.2026 -
Alan Forneris Racing Club Ativo 124 / 126 40% 3 29.10.2026 -
Rico Lewis Manchester City Ativo 142 / 158 40% 4 29.10.2026 -
Samuel Lucero Defensa y Justicia Ativo 100 / 122 40% 1 25.10.2026 -
Javier Mena Portimonense Ativo 105 / 125 40% 2 24.10.2026 -
Facundo Di Biasi Gimnasia La Plata Ativo 102 / 121 40% 1 18.10.2026 -
Axel Frugone Defensor Sporting Ativo 115 / 129 40% 1 13.10.2026 -
Hervin Goyes Deportivo Pasto Ativo 92 / 102 40% 1 11.10.2026 -
Mateo Mendoza Godoy Cruz Ativo 108 / 129 40% 2 05.10.2026 -
Nahuel Arias San Lorenzo Ativo 116 / 123 40% 1 05.10.2026 -
Lucas Bergvall Tottenham Ativo 142 / 144 40% 1 11.09.2026 -
Ignacio Perruzzi San Lorenzo Ativo 137 / 122 40% 1 11.09.2026 -
Juan Fernándes Pinto Almagro Ativo 97 / 115 40% 1 09.09.2026 -
Ángel Correa River Plate Ativo 127 / 146 40% 1 04.08.2026 -
Frenkie de Jong Barcelona Ativo 174 / 166 40% 1 04.08.2026 -
Andreas Christensen Barcelona Ativo 152 / 152 55% 1 03.08.2026 -